Time;durP1;ratioP1;P1;durP2;ratioP2;P2;SDS_P1;SDS_P2;PMS_P1;PMS_P2;Temp;Humidity;BMP_temperature;BMP_pressure;BME280_temperature;BME280_humidity;BME280_pressure;Samples;Min_cycle;Max_cycle;Signal;HPM_P1;HPM_P2
2023/01/16 00:01:22;;;;;;;;;5.00;1.00;;;;;8.27;100.00;99179.81;5074841;28;45779;-79
2023/01/16 00:03:48;;;;;;;;;1.00;1.00;;;;;8.31;100.00;99161.91;5078125;27;45671;-81
2023/01/16 00:06:13;;;;;;;;;1.00;1.00;;;;;8.34;100.00;99162.50;5076777;27;46254;-82
2023/01/16 00:08:41;;;;;;;;;1.33;0.00;;;;;8.32;100.00;99151.81;5080038;27;45852;-81
2023/01/16 00:11:06;;;;;;;;;2.00;0.00;;;;;8.30;100.00;99119.25;5081832;27;45762;-82
2023/01/16 00:13:32;;;;;;;;;0.33;0.33;;;;;8.34;100.00;99118.78;5084589;27;45925;-82
2023/01/16 00:15:57;;;;;;;;;0.00;0.00;;;;;8.36;100.00;99095.66;5084093;27;47336;-81
2023/01/16 00:18:23;;;;;;;;;1.33;1.00;;;;;8.36;100.00;99078.44;5084542;27;45739;-81
2023/01/16 00:20:48;;;;;;;;;0.00;0.00;;;;;8.35;100.00;99065.84;5072326;27;45421;-81
2023/01/16 00:23:14;;;;;;;;;1.00;1.00;;;;;8.41;100.00;99054.81;5073640;27;45572;-80
2023/01/16 00:25:41;;;;;;;;;1.00;0.00;;;;;8.40;100.00;99008.63;5071187;27;46032;-81
2023/01/16 00:28:12;;;;;;;;;1.00;1.00;;;;;8.36;100.00;98983.66;5078165;27;45780;-81
2023/01/16 00:30:37;;;;;;;;;0.67;0.67;;;;;8.41;100.00;98980.22;5067583;27;45742;-81
2023/01/16 00:33:04;;;;;;;;;2.33;0.00;;;;;8.44;100.00;98972.41;5077337;27;45589;-81
2023/01/16 00:35:30;;;;;;;;;5.33;1.00;;;;;8.42;100.00;98960.03;5082942;27;45811;-81
2023/01/16 00:37:56;;;;;;;;;2.67;1.67;;;;;8.36;100.00;98950.88;5089862;27;45862;-80
2023/01/16 00:40:22;;;;;;;;;1.67;0.00;;;;;8.40;100.00;98926.66;5075265;27;45699;-82
2023/01/16 00:42:47;;;;;;;;;4.00;1.33;;;;;8.36;100.00;98912.66;5090526;27;45371;-81
2023/01/16 00:45:13;;;;;;;;;2.00;1.00;;;;;8.36;100.00;98887.25;5105219;27;46864;-81
2023/01/16 00:47:38;;;;;;;;;1.00;0.67;;;;;8.30;100.00;98881.66;5078250;27;45418;-81
2023/01/16 00:50:05;;;;;;;;;2.00;1.00;;;;;8.29;100.00;98879.16;5078149;27;45878;-81
2023/01/16 00:52:30;;;;;;;;;1.00;1.00;;;;;8.27;100.00;98868.47;5095696;27;45453;-83
2023/01/16 00:54:56;;;;;;;;;0.00;0.00;;;;;8.36;100.00;98851.72;5095616;27;45415;-81
2023/01/16 00:57:22;;;;;;;;;1.67;0.00;;;;;8.20;100.00;98824.09;5080171;27;45451;-81
2023/01/16 00:59:47;;;;;;;;;2.00;1.00;;;;;8.36;100.00;98824.41;5110489;27;45598;-82
2023/01/16 01:02:13;;;;;;;;;3.00;1.00;;;;;8.34;100.00;98799.22;5099092;27;45888;-80
2023/01/16 01:04:39;;;;;;;;;0.00;0.00;;;;;8.23;100.00;98770.91;5094988;27;45787;-80
2023/01/16 01:07:04;;;;;;;;;0.00;0.00;;;;;8.26;100.00;98790.38;5092930;27;45453;-79
2023/01/16 01:09:30;;;;;;;;;1.00;0.00;;;;;8.30;100.00;98761.47;5083280;27;45571;-80
2023/01/16 01:11:58;;;;;;;;;2.00;1.00;;;;;8.16;100.00;98738.28;5092201;27;46025;-79
2023/01/16 01:14:25;;;;;;;;;2.33;0.33;;;;;8.30;100.00;98727.91;5082135;27;46165;-80
2023/01/16 01:16:50;;;;;;;;;3.00;1.00;;;;;8.27;100.00;98717.47;5097480;27;45446;-79
2023/01/16 01:19:16;;;;;;;;;1.00;1.00;;;;;8.14;100.00;98669.41;5083751;27;45418;-80
2023/01/16 01:21:41;;;;;;;;;0.00;0.00;;;;;8.31;100.00;98664.03;5095624;27;45487;-80
2023/01/16 01:24:07;;;;;;;;;2.33;1.00;;;;;8.31;100.00;98653.91;5081116;27;45629;-80
2023/01/16 01:26:32;;;;;;;;;2.00;1.00;;;;;8.30;100.00;98616.75;5094927;27;45560;-79
2023/01/16 01:28:58;;;;;;;;;0.33;0.00;;;;;8.25;100.00;98605.75;5090153;27;45737;-80
2023/01/16 01:31:23;;;;;;;;;1.00;1.00;;;;;8.21;100.00;98601.84;5102242;27;45751;-81
2023/01/16 01:33:49;;;;;;;;;1.00;1.00;;;;;8.27;100.00;98583.66;5077465;27;48199;-80
2023/01/16 01:36:14;;;;;;;;;1.00;0.00;;;;;8.26;100.00;98579.25;5084640;27;45371;-78
2023/01/16 01:38:39;;;;;;;;;2.00;0.00;;;;;8.18;100.00;98536.00;5096252;27;45497;-80
2023/01/16 01:41:05;;;;;;;;;0.00;0.00;;;;;8.23;100.00;98531.44;5090377;27;45669;-81
2023/01/16 01:43:49;;;;;;;;;1.33;0.00;;;;;8.22;100.00;98523.47;5086913;27;45838;-81
2023/01/16 01:46:46;;;;;;;;;1.00;0.00;;;;;8.22;100.00;98513.41;5084824;27;45575;-81
2023/01/16 01:49:30;;;;;;;;;1.33;1.33;;;;;8.19;100.00;98480.28;5089780;27;45354;-83
2023/01/16 01:52:00;;;;;;;;;2.00;0.00;;;;;8.03;100.00;98424.66;5090959;27;45790;-83
2023/01/16 01:54:35;;;;;;;;;0.67;0.67;;;;;8.10;100.00;98438.97;5078772;27;45614;-81
2023/01/16 01:57:08;;;;;;;;;0.67;0.67;;;;;8.07;100.00;98434.81;5097580;27;45465;-82
2023/01/16 01:59:39;;;;;;;;;1.00;1.00;;;;;7.98;100.00;98419.09;5097963;27;45390;-81
2023/01/16 02:02:07;;;;;;;;;2.00;1.00;;;;;7.98;100.00;98400.00;5079365;27;46018;-82
2023/01/16 02:04:56;;;;;;;;;1.00;0.67;;;;;7.81;100.00;98359.09;5096549;27;45790;-86
2023/01/16 02:07:23;;;;;;;;;4.00;2.67;;;;;7.73;100.00;98376.72;5085101;27;45626;-84
2023/01/16 02:09:56;;;;;;;;;1.00;0.00;;;;;7.64;100.00;98321.72;5088965;27;45465;-84
2023/01/16 02:12:21;;;;;;;;;0.00;0.00;;;;;7.55;100.00;98348.59;5093572;27;45349;-83
2023/01/16 02:14:48;;;;;;;;;1.00;0.00;;;;;7.33;100.00;98312.25;5078522;27;47068;-84
2023/01/16 02:20:08;;;;;;;;;1.00;1.00;;;;;7.09;100.00;98319.75;5095178;27;45366;-81
2023/01/16 02:22:52;;;;;;;;;0.00;0.00;;;;;6.99;100.00;98312.22;5079220;27;46133;-82
2023/01/16 02:26:08;;;;;;;;;1.00;0.00;;;;;6.96;100.00;98308.09;5096647;27;45602;-81
2023/01/16 02:29:04;;;;;;;;;0.67;0.00;;;;;6.83;100.00;98243.03;5099267;27;46007;-83
2023/01/16 02:31:35;;;;;;;;;1.00;0.33;;;;;6.80;100.00;98263.41;5096314;27;45391;-82
2023/01/16 02:34:08;;;;;;;;;0.00;0.00;;;;;6.77;100.00;98255.72;5093140;27;45388;-81
2023/01/16 02:36:46;;;;;;;;;0.67;0.00;;;;;6.74;100.00;98275.28;5092731;27;47228;-81
2023/01/16 02:39:25;;;;;;;;;0.00;0.00;;;;;6.77;100.00;98225.75;5074573;27;45683;-80
2023/01/16 02:42:13;;;;;;;;;1.00;0.00;;;;;6.75;100.00;98241.53;5076279;27;45399;-83
2023/01/16 02:45:03;;;;;;;;;2.33;0.00;;;;;6.75;100.00;98211.56;5071581;27;47092;-79
2023/01/16 02:47:43;;;;;;;;;0.00;0.00;;;;;6.73;100.00;98202.81;5107095;27;47174;-80
2023/01/16 02:50:17;;;;;;;;;0.00;0.00;;;;;6.76;100.00;98204.22;5105665;27;45828;-78
2023/01/16 02:52:51;;;;;;;;;0.00;0.00;;;;;6.77;100.00;98184.91;5106557;27;45487;-79
2023/01/16 02:55:28;;;;;;;;;0.00;0.00;;;;;6.77;100.00;98184.09;5102193;27;45833;-79
2023/01/16 02:57:59;;;;;;;;;0.00;0.00;;;;;6.76;100.00;98169.63;5099785;27;45774;-80
2023/01/16 03:00:25;;;;;;;;;0.67;0.67;;;;;6.75;100.00;98151.66;5084441;27;45802;-79
2023/01/16 03:02:50;;;;;;;;;1.00;0.00;;;;;6.82;100.00;98157.72;5111478;27;45606;-79
2023/01/16 03:05:16;;;;;;;;;0.00;0.00;;;;;6.86;100.00;98158.91;5104054;27;45635;-78
2023/01/16 03:07:54;;;;;;;;;0.00;0.00;;;;;6.87;100.00;98146.94;5105176;27;46282;-79
2023/01/16 03:10:46;;;;;;;;;0.00;0.00;;;;;6.90;100.00;98126.50;5097185;27;45618;-79
2023/01/16 03:13:43;;;;;;;;;0.00;0.00;;;;;6.89;100.00;98130.34;5084049;27;45873;-79
2023/01/16 03:16:27;;;;;;;;;1.33;0.33;;;;;6.91;100.00;98127.38;5094352;27;45743;-78
2023/01/16 03:19:19;;;;;;;;;0.00;0.00;;;;;6.88;100.00;98104.16;5090486;27;46833;-78
2023/01/16 03:22:07;;;;;;;;;1.00;0.00;;;;;6.91;100.00;98081.84;5085868;27;45778;-80
2023/01/16 03:25:14;;;;;;;;;1.00;0.00;;;;;6.85;100.00;98072.78;5073496;27;45550;-77
2023/01/16 03:27:54;;;;;;;;;1.00;0.00;;;;;6.81;100.00;98068.09;5078866;27;45957;-80
2023/01/16 03:30:44;;;;;;;;;0.00;0.00;;;;;6.77;100.00;98065.06;5091417;27;45754;-80
2023/01/16 03:33:29;;;;;;;;;2.00;0.00;;;;;6.77;100.00;98048.72;5089273;27;45586;-80
2023/01/16 03:36:02;;;;;;;;;0.00;0.00;;;;;6.78;100.00;98031.31;5091446;27;45660;-79
2023/01/16 03:38:30;;;;;;;;;0.00;0.00;;;;;6.75;100.00;98037.25;5079982;27;45513;-79
2023/01/16 03:41:00;;;;;;;;;2.00;0.00;;;;;6.72;100.00;98021.38;5093191;27;45528;-80
2023/01/16 03:43:26;;;;;;;;;0.67;0.00;;;;;6.77;100.00;97990.69;5093042;27;45435;-80
2023/01/16 03:45:59;;;;;;;;;0.00;0.00;;;;;6.74;100.00;97986.56;5091938;27;45376;-79
2023/01/16 03:48:36;;;;;;;;;0.00;0.00;;;;;6.70;100.00;97963.63;5102945;27;45745;-80
2023/01/16 03:51:07;;;;;;;;;1.00;0.00;;;;;6.80;100.00;97977.38;5086106;27;45804;-80
2023/01/16 03:53:42;;;;;;;;;1.00;0.00;;;;;6.82;100.00;97956.16;5099664;27;45350;-79
2023/01/16 03:56:15;;;;;;;;;0.00;0.00;;;;;6.81;100.00;97976.31;5109120;27;45470;-78
2023/01/16 03:58:43;;;;;;;;;0.00;0.00;;;;;6.85;100.00;97947.47;5095645;27;45926;-80
2023/01/16 04:01:42;;;;;;;;;0.00;0.00;;;;;6.88;100.00;97938.78;5114026;27;45472;-79
2023/01/16 04:04:14;;;;;;;;;0.00;0.00;;;;;6.83;100.00;97927.84;5106726;27;45332;-79
2023/01/16 04:06:50;;;;;;;;;0.00;0.00;;;;;6.91;100.00;97936.66;5096342;27;45881;-80
2023/01/16 04:09:26;;;;;;;;;0.00;0.00;;;;;6.95;100.00;97937.81;5104895;27;46637;-81
2023/01/16 04:11:54;;;;;;;;;0.00;0.00;;;;;6.93;100.00;97913.53;5093199;27;46507;-80
2023/01/16 04:14:22;;;;;;;;;1.67;0.00;;;;;7.02;100.00;97909.28;5112001;27;45647;-79
2023/01/16 04:16:49;;;;;;;;;0.00;0.00;;;;;6.94;100.00;97898.00;5113328;27;45540;-81
2023/01/16 04:19:17;;;;;;;;;0.00;0.00;;;;;6.94;100.00;97895.28;5107906;27;46221;-79
2023/01/16 04:21:46;;;;;;;;;0.00;0.00;;;;;6.96;100.00;97888.50;5077493;27;46080;-80
2023/01/16 04:24:13;;;;;;;;;0.67;0.00;;;;;7.07;100.00;97878.53;5105808;27;45716;-78
2023/01/16 04:26:41;;;;;;;;;0.00;0.00;;;;;7.11;100.00;97881.53;5086629;27;45478;-80
2023/01/16 04:29:07;;;;;;;;;0.00;0.00;;;;;7.09;100.00;97887.25;5103883;27;45888;-79
2023/01/16 04:31:32;;;;;;;;;0.00;0.00;;;;;6.96;100.00;97857.69;5107902;27;45476;-78
2023/01/16 04:33:58;;;;;;;;;0.00;0.00;;;;;7.01;100.00;97861.28;5089397;27;45655;-79
2023/01/16 04:36:23;;;;;;;;;0.00;0.00;;;;;6.95;100.00;97862.31;5106390;27;45420;-79
2023/01/16 04:38:51;;;;;;;;;0.00;0.00;;;;;6.91;100.00;97839.38;5096087;27;46042;-80
2023/01/16 04:41:35;;;;;;;;;0.00;0.00;;;;;6.87;100.00;97844.53;5099066;27;46791;-80
2023/01/16 04:44:02;;;;;;;;;0.00;0.00;;;;;6.72;100.00;97828.00;5091202;27;45410;-80
2023/01/16 04:46:29;;;;;;;;;1.00;0.00;;;;;6.81;100.00;97818.34;5076891;27;45542;-79
2023/01/16 04:48:54;;;;;;;;;0.00;0.00;;;;;6.87;100.00;97805.56;5080735;27;46716;-81
2023/01/16 04:51:20;;;;;;;;;0.67;0.00;;;;;6.92;100.00;97800.19;5085422;27;46374;-80
2023/01/16 04:53:46;;;;;;;;;0.00;0.00;;;;;6.75;100.00;97745.81;5075339;27;45866;-81
2023/01/16 04:56:11;;;;;;;;;0.33;0.00;;;;;6.83;100.00;97761.69;5083345;27;45915;-79
2023/01/16 04:58:37;;;;;;;;;0.00;0.00;;;;;6.85;100.00;97754.06;5091701;27;46125;-79
2023/01/16 05:01:03;;;;;;;;;0.00;0.00;;;;;7.00;100.00;97747.94;5110672;27;46351;-80
2023/01/16 05:03:28;;;;;;;;;0.00;0.00;;;;;6.96;100.00;97744.09;5077511;27;45684;-80
2023/01/16 05:05:54;;;;;;;;;0.00;0.00;;;;;6.95;100.00;97736.19;5085553;27;45481;-79
2023/01/16 05:08:19;;;;;;;;;0.00;0.00;;;;;7.12;100.00;97753.19;5091868;27;45905;-78
2023/01/16 05:10:45;;;;;;;;;0.00;0.00;;;;;7.11;100.00;97740.69;5094471;27;46213;-79
2023/01/16 05:13:10;;;;;;;;;0.00;0.00;;;;;7.07;100.00;97710.38;5092693;27;45690;-80
2023/01/16 05:15:40;;;;;;;;;2.00;0.00;;;;;7.24;100.00;97721.16;5077190;27;45581;-81
2023/01/16 05:18:06;;;;;;;;;0.00;0.00;;;;;7.20;100.00;97709.13;5095212;27;45972;-80
2023/01/16 05:20:32;;;;;;;;;1.00;0.00;;;;;7.17;100.00;97679.69;5094539;27;45683;-81
2023/01/16 05:22:57;;;;;;;;;0.00;0.00;;;;;7.31;100.00;97695.56;5094081;27;45373;-79
2023/01/16 05:25:22;;;;;;;;;0.00;0.00;;;;;7.32;100.00;97686.28;5076004;27;45821;-80
2023/01/16 05:27:49;;;;;;;;;0.00;0.00;;;;;7.33;100.00;97677.84;5093755;27;45760;-80
2023/01/16 05:30:15;;;;;;;;;0.00;0.00;;;;;7.39;100.00;97656.91;5096015;27;45357;-80
2023/01/16 05:32:42;;;;;;;;;1.00;0.00;;;;;7.45;100.00;97653.09;5096415;27;45412;-81
2023/01/16 05:35:07;;;;;;;;;0.33;0.33;;;;;7.46;100.00;97643.03;5084900;27;45818;-81
2023/01/16 05:37:33;;;;;;;;;3.00;1.00;;;;;7.47;100.00;97626.41;5079020;27;46063;-79
2023/01/16 05:39:59;;;;;;;;;0.00;0.00;;;;;7.57;100.00;97622.91;5093638;27;46343;-81
2023/01/16 05:42:28;;;;;;;;;1.67;0.00;;;;;7.52;100.00;97615.50;5105032;27;45602;-82
2023/01/16 05:44:53;;;;;;;;;0.00;0.00;;;;;7.67;100.00;97605.75;5108481;27;45539;-81
2023/01/16 05:47:20;;;;;;;;;0.33;0.00;;;;;7.71;100.00;97604.97;5100129;27;45725;-81
2023/01/16 05:49:46;;;;;;;;;1.00;0.00;;;;;7.68;100.00;97591.00;5108894;27;46229;-84
2023/01/16 05:52:12;;;;;;;;;0.00;0.00;;;;;7.78;100.00;97591.06;5094715;27;45463;-83
2023/01/16 05:54:41;;;;;;;;;0.00;0.00;;;;;7.82;100.00;97575.78;5104707;27;46952;-84
2023/01/16 05:57:06;;;;;;;;;1.00;0.00;;;;;7.80;100.00;97567.06;5081988;27;45917;-82
2023/01/16 05:59:32;;;;;;;;;1.33;0.00;;;;;7.76;100.00;97568.69;5088568;27;46160;-81
2023/01/16 06:01:58;;;;;;;;;0.00;0.00;;;;;7.87;100.00;97578.50;5103322;27;46152;-82
2023/01/16 06:04:24;;;;;;;;;2.00;0.00;;;;;7.82;100.00;97564.06;5102989;27;44806;-84
2023/01/16 06:06:49;;;;;;;;;1.00;0.00;;;;;7.83;100.00;97560.22;5085888;27;45886;-83
2023/01/16 06:09:15;;;;;;;;;0.00;0.00;;;;;7.95;100.00;97571.75;5075687;27;48572;-79
2023/01/16 06:11:43;;;;;;;;;4.00;1.33;;;;;7.97;100.00;97564.09;5081689;27;45511;-84
2023/01/16 06:14:09;;;;;;;;;2.33;0.00;;;;;8.01;100.00;97567.09;5102913;27;45429;-83
2023/01/16 06:16:35;;;;;;;;;0.67;0.00;;;;;8.11;100.00;97562.47;5099378;27;45555;-83
2023/01/16 06:19:01;;;;;;;;;0.00;0.00;;;;;8.23;100.00;97539.53;5102972;27;45986;-84
2023/01/16 06:21:27;;;;;;;;;0.00;0.00;;;;;8.42;100.00;97556.19;5089386;27;45885;-85
2023/01/16 06:23:52;;;;;;;;;0.00;0.00;;;;;8.51;100.00;97546.41;5105007;27;45257;-84
2023/01/16 06:26:19;;;;;;;;;0.00;0.00;;;;;8.35;100.00;97506.50;5097096;27;47342;-82
2023/01/16 06:28:45;;;;;;;;;0.00;0.00;;;;;8.48;100.00;97538.75;5100118;27;45476;-83
2023/01/16 06:31:10;;;;;;;;;3.00;0.33;;;;;8.45;100.00;97542.03;5081623;27;45515;-81
2023/01/16 06:33:39;;;;;;;;;2.33;1.00;;;;;8.42;100.00;97534.34;5093855;27;45419;-82
2023/01/16 06:36:05;;;;;;;;;2.33;0.00;;;;;8.34;100.00;97527.53;5099941;27;45493;-81
2023/01/16 06:38:30;;;;;;;;;2.00;0.00;;;;;8.34;100.00;97532.16;5097660;27;45455;-83
2023/01/16 06:40:56;;;;;;;;;0.67;0.00;;;;;8.22;100.00;97503.25;5106790;27;45574;-83
2023/01/16 06:43:23;;;;;;;;;0.00;0.00;;;;;8.25;100.00;97512.81;5105607;27;45609;-81
2023/01/16 06:45:48;;;;;;;;;0.67;0.00;;;;;8.16;100.00;97512.53;5085067;27;45418;-82
2023/01/16 06:48:14;;;;;;;;;0.00;0.00;;;;;8.12;100.00;97511.44;5057064;28;46797;-82
2023/01/16 06:50:40;;;;;;;;;2.00;1.00;;;;;8.08;100.00;97496.69;5082661;27;45383;-80
2023/01/16 06:53:05;;;;;;;;;0.33;0.00;;;;;8.07;100.00;97490.41;5096642;27;45394;-81
2023/01/16 06:55:31;;;;;;;;;0.00;0.00;;;;;8.04;100.00;97479.22;5081905;27;45460;-81
2023/01/16 06:57:57;;;;;;;;;0.00;0.00;;;;;7.99;100.00;97477.31;5093990;27;46069;-80
2023/01/16 07:00:24;;;;;;;;;1.00;0.00;;;;;7.99;100.00;97471.84;5102703;27;45564;-84
2023/01/16 07:02:55;;;;;;;;;1.00;0.00;;;;;7.97;100.00;97462.31;5081354;27;45475;-83
2023/01/16 07:05:25;;;;;;;;;1.00;0.00;;;;;7.95;100.00;97460.66;5101244;27;45695;-83
2023/01/16 07:07:51;;;;;;;;;1.00;0.00;;;;;7.92;100.00;97452.22;5096686;27;46624;-83
2023/01/16 07:10:20;;;;;;;;;4.67;0.33;;;;;7.94;100.00;97436.38;5107753;27;45780;-84
2023/01/16 07:12:46;;;;;;;;;1.00;0.00;;;;;7.95;100.00;97438.03;5106852;27;45392;-83
2023/01/16 07:23:33;;;;;;;;;0.00;0.00;;;;;7.73;100.00;97362.72;5110774;27;45391;-85
2023/01/16 07:26:04;;;;;;;;;0.00;0.00;;;;;7.97;100.00;97385.91;5112184;27;45876;-83
2023/01/16 07:28:30;;;;;;;;;0.00;0.00;;;;;7.98;100.00;97387.53;5094970;27;48502;-84
2023/01/16 07:31:02;;;;;;;;;0.33;0.33;;;;;7.93;100.00;97364.63;5112432;27;45779;-83
2023/01/16 07:33:38;;;;;;;;;0.00;0.00;;;;;7.94;100.00;97366.25;5109695;27;44850;-84
2023/01/16 07:36:07;;;;;;;;;0.33;0.00;;;;;7.97;100.00;97351.25;5092833;27;44836;-87
2023/01/16 07:38:32;;;;;;;;;0.33;0.00;;;;;7.91;100.00;97336.78;5100385;27;46074;-83
2023/01/16 07:41:00;;;;;;;;;2.00;2.00;;;;;7.90;100.00;97316.09;5088856;27;45484;-83
2023/01/16 07:43:26;;;;;;;;;0.00;0.00;;;;;7.95;100.00;97324.25;5105410;27;45453;-82
2023/01/16 07:45:54;;;;;;;;;2.00;0.00;;;;;7.74;100.00;97300.84;5084251;27;45822;-83
2023/01/16 07:48:21;;;;;;;;;3.00;0.33;;;;;7.89;100.00;97319.91;5096253;27;45403;-84
2023/01/16 07:50:54;;;;;;;;;2.00;2.00;;;;;7.83;100.00;97307.34;5106476;27;45791;-84
2023/01/16 07:53:22;;;;;;;;;1.00;0.00;;;;;7.99;100.00;97310.84;5105837;27;45876;-83
2023/01/16 07:55:57;;;;;;;;;0.67;0.00;;;;;8.00;100.00;97298.03;5105881;27;45515;-83
2023/01/16 07:58:23;;;;;;;;;3.00;1.00;;;;;7.99;100.00;97294.47;5092360;27;45839;-83
2023/01/16 08:00:51;;;;;;;;;0.33;0.00;;;;;7.92;100.00;97278.41;5098754;27;45702;-83
2023/01/16 08:03:17;;;;;;;;;0.00;0.00;;;;;7.87;100.00;97277.59;5093583;27;45698;-84
2023/01/16 08:05:45;;;;;;;;;0.00;0.00;;;;;7.94;100.00;97295.31;5066363;27;45759;-82
2023/01/16 08:08:12;;;;;;;;;0.00;0.00;;;;;7.86;100.00;97260.44;5090000;27;47202;-81
2023/01/16 08:10:38;;;;;;;;;0.00;0.00;;;;;7.78;100.00;97258.25;5080928;27;45410;-83
2023/01/16 08:13:04;;;;;;;;;0.00;0.00;;;;;7.88;100.00;97276.53;5097861;27;45402;-83
2023/01/16 08:15:30;;;;;;;;;2.00;1.00;;;;;7.87;100.00;97264.78;5086278;27;45913;-82
2023/01/16 08:17:56;;;;;;;;;0.00;0.00;;;;;7.83;100.00;97257.41;5100709;27;45817;-83
2023/01/16 08:20:22;;;;;;;;;0.00;0.00;;;;;7.88;100.00;97250.03;5096538;27;45644;-82
2023/01/16 08:22:50;;;;;;;;;0.00;0.00;;;;;7.90;100.00;97253.34;5079426;27;45404;-82
2023/01/16 08:25:17;;;;;;;;;1.00;1.00;;;;;7.88;100.00;97239.13;5097972;27;45596;-82
2023/01/16 08:27:43;;;;;;;;;0.00;0.00;;;;;7.92;100.00;97231.22;5084782;27;45788;-83
2023/01/16 08:30:09;;;;;;;;;0.00;0.00;;;;;7.93;100.00;97228.22;5098013;27;45374;-83
2023/01/16 08:32:40;;;;;;;;;1.00;0.33;;;;;7.77;100.00;97204.81;5084856;27;45841;-85
2023/01/16 08:35:06;;;;;;;;;0.33;0.33;;;;;7.79;100.00;97199.88;5098364;27;45552;-83
2023/01/16 08:37:32;;;;;;;;;0.00;0.00;;;;;7.93;100.00;97214.56;5103985;27;45533;-83
2023/01/16 08:39:57;;;;;;;;;0.00;0.00;;;;;7.92;100.00;97203.94;5078498;27;45495;-83
2023/01/16 08:53:23;;;;;;;;;0.33;0.00;;;;;7.78;100.00;97241.88;5090961;27;45497;-82
2023/01/16 08:55:49;;;;;;;;;0.00;0.00;;;;;7.70;100.00;97243.28;5098981;27;45730;-82
2023/01/16 08:58:14;;;;;;;;;0.00;0.00;;;;;7.66;100.00;97236.72;5075498;27;47954;-83
2023/01/16 09:00:40;;;;;;;;;1.33;1.33;;;;;7.68;100.00;97259.13;5096279;27;45561;-82
2023/01/16 09:03:05;;;;;;;;;0.00;0.00;;;;;7.58;100.00;97276.28;5099059;27;45313;-83
2023/01/16 09:05:31;;;;;;;;;1.00;0.00;;;;;7.51;100.00;97286.66;5106373;27;45765;-83
2023/01/16 09:07:56;;;;;;;;;2.00;0.00;;;;;7.40;100.00;97285.06;5094109;27;46249;-81
2023/01/16 09:10:22;;;;;;;;;1.00;0.00;;;;;7.39;100.00;97284.22;5068455;27;45779;-82
2023/01/16 09:15:31;;;;;;;;;3.00;0.33;;;;;7.43;100.00;97303.59;5088355;27;45739;-82
2023/01/16 09:17:57;;;;;;;;;0.33;0.00;;;;;7.38;100.00;97314.47;5112651;27;45666;-83
2023/01/16 09:20:25;;;;;;;;;0.00;0.00;;;;;7.34;100.00;97313.41;5089201;27;46555;-82
2023/01/16 09:22:57;;;;;;;;;0.00;0.00;;;;;7.25;100.00;97322.13;5110745;27;45509;-82
2023/01/16 09:25:23;;;;;;;;;0.00;0.00;;;;;7.22;100.00;97328.13;5103353;27;46212;-83
2023/01/16 09:27:48;;;;;;;;;0.00;0.00;;;;;7.18;100.00;97339.84;5095860;27;45584;-84
2023/01/16 09:30:14;;;;;;;;;0.00;0.00;;;;;7.17;100.00;97341.75;5101036;27;45777;-81
2023/01/16 09:32:39;;;;;;;;;0.00;0.00;;;;;7.21;100.00;97353.72;5078914;27;45485;-81
2023/01/16 09:35:05;;;;;;;;;0.00;0.00;;;;;7.24;100.00;97361.38;5092842;27;45488;-83
2023/01/16 09:37:31;;;;;;;;;0.00;0.00;;;;;7.26;100.00;97374.75;5102819;27;47105;-83
2023/01/16 09:39:56;;;;;;;;;1.00;0.00;;;;;7.19;100.00;97376.91;5095645;27;46997;-82
2023/01/16 09:45:22;;;;;;;;;0.00;0.00;;;;;7.34;100.00;97400.63;5094582;27;45409;-80
2023/01/16 09:47:53;;;;;;;;;0.00;0.00;;;;;7.31;100.00;97388.34;5073659;28;47214;-82
2023/01/16 09:50:28;;;;;;;;;0.00;0.00;;;;;7.46;100.00;97420.28;5089045;27;45840;-82
2023/01/16 09:58:36;;;;;;;;;0.00;0.00;;;;;7.92;100.00;97431.19;5105193;27;45939;-82
2023/01/16 10:01:12;;;;;;;;;0.00;0.00;;;;;8.06;100.00;97436.91;5079547;27;45762;-82
2023/01/16 10:03:42;;;;;;;;;0.00;0.00;;;;;8.10;100.00;97445.41;5095505;27;45394;-84
2023/01/16 10:06:55;;;;;;;;;3.00;0.00;;;;;8.24;100.00;97456.56;5074591;27;46027;-83
2023/01/16 10:09:38;;;;;;;;;0.00;0.00;;;;;8.46;100.00;97478.13;5012162;28;45643;-83
2023/01/16 10:12:09;;;;;;;;;0.00;0.00;;;;;8.53;100.00;97480.56;5011399;28;45670;-82
2023/01/16 10:14:53;;;;;;;;;0.00;0.00;;;;;8.57;100.00;97485.19;5059885;27;45359;-82
2023/01/16 10:17:24;;;;;;;;;1.67;0.00;;;;;8.59;100.00;97506.78;5059977;27;45458;-82
2023/01/16 10:20:25;;;;;;;;;1.00;1.00;;;;;8.56;100.00;97510.91;5067478;27;48147;-83
2023/01/16 10:23:02;;;;;;;;;0.33;0.00;;;;;8.45;100.00;97521.00;5084251;27;45749;-83
2023/01/16 10:25:53;;;;;;;;;0.00;0.00;;;;;8.34;100.00;97537.63;5095704;27;45706;-80
2023/01/16 10:28:52;;;;;;;;;0.00;0.00;;;;;8.23;100.00;97542.28;5098383;27;47216;-80
2023/01/16 10:31:28;;;;;;;;;3.33;0.67;;;;;8.05;100.00;97528.06;5095473;27;45725;-83
2023/01/16 10:34:08;;;;;;;;;1.67;1.00;;;;;8.07;100.00;97560.56;5093443;27;45455;-83
2023/01/16 10:36:48;;;;;;;;;1.00;1.00;;;;;7.97;100.00;97577.72;5077644;27;45528;-83
2023/01/16 10:39:16;;;;;;;;;1.00;1.00;;;;;7.95;100.00;97575.28;5086378;27;45425;-84
2023/01/16 10:50:20;;;;;;;;;1.00;0.00;;;;;8.13;100.00;97631.25;5099409;27;45866;-83
2023/01/16 10:52:48;;;;;;;;;0.00;0.00;;;;;8.24;100.00;97632.09;5096851;27;46126;-84
2023/01/16 10:55:15;;;;;;;;;1.33;0.00;;;;;8.29;100.00;97643.03;5088392;27;45938;-82
2023/01/16 10:57:55;;;;;;;;;0.00;0.00;;;;;8.36;100.00;97663.78;5097325;27;45514;-82
2023/01/16 11:00:29;;;;;;;;;0.00;0.00;;;;;8.27;100.00;97666.22;5073397;27;47064;-82
2023/01/16 11:03:32;;;;;;;;;0.00;0.00;;;;;8.34;100.00;97690.53;5094711;27;45673;-83
2023/01/16 11:06:19;;;;;;;;;0.00;0.00;;;;;8.11;100.00;97693.50;5051739;27;45443;-83
2023/01/16 11:08:48;;;;;;;;;0.00;0.00;;;;;7.98;100.00;97710.38;5088420;27;45772;-83
2023/01/16 11:19:42;;;;;;;;;0.00;0.00;;;;;7.62;100.00;97751.13;5088535;27;45495;-85
2023/01/16 11:22:24;;;;;;;;;0.00;0.00;;;;;7.56;100.00;97761.16;5064459;27;46051;-84
2023/01/16 11:24:54;;;;;;;;;0.00;0.00;;;;;7.58;100.00;97763.63;5085530;27;46279;-83
2023/01/16 11:27:23;;;;;;;;;0.00;0.00;;;;;7.58;100.00;97756.25;5093668;27;45864;-83
2023/01/16 11:29:53;;;;;;;;;0.00;0.00;;;;;7.71;100.00;97786.88;5079239;27;46041;-83
2023/01/16 11:32:24;;;;;;;;;2.00;0.00;;;;;7.70;100.00;97774.34;5095711;27;45616;-83
2023/01/16 11:34:54;;;;;;;;;0.00;0.00;;;;;7.87;100.00;97779.59;5077157;27;46380;-83
2023/01/16 11:37:22;;;;;;;;;0.00;0.00;;;;;8.00;100.00;97786.50;5088932;27;46168;-82
2023/01/16 11:39:50;;;;;;;;;1.00;0.00;;;;;8.03;100.00;97784.06;5112061;27;45769;-85
2023/01/16 11:48:22;;;;;;;;;0.00;0.00;;;;;8.26;100.00;97823.75;5093776;27;45478;-81
2023/01/16 11:50:50;;;;;;;;;0.00;0.00;;;;;8.26;100.00;97831.97;5091643;27;45512;-83
2023/01/16 11:53:15;;;;;;;;;0.33;0.00;;;;;8.37;100.00;97846.47;5088587;27;45981;-85
2023/01/16 11:56:13;;;;;;;;;0.00;0.00;;;;;8.39;100.00;97847.00;5109493;27;46311;-83
2023/01/16 11:59:06;;;;;;;;;0.00;0.00;;;;;8.39;100.00;97854.41;5052290;27;45819;-83
2023/01/16 12:04:25;;;;;;;;;0.00;0.00;;;;;8.50;100.00;97875.22;5105051;27;45809;-84
2023/01/16 12:07:00;;;;;;;;;0.00;0.00;;;;;8.53;100.00;97882.88;5065466;27;47398;-84
2023/01/16 12:10:01;;;;;;;;;0.00;0.00;;;;;8.60;100.00;97897.13;5090781;27;45473;-82
2023/01/16 12:16:12;;;;;;;;;0.00;0.00;;;;;9.07;100.00;97905.47;5095311;27;45448;-84
2023/01/16 12:18:59;;;;;;;;;0.00;0.00;;;;;9.18;100.00;97912.63;5088270;27;45564;-84
2023/01/16 12:21:42;;;;;;;;;2.00;1.00;;;;;9.28;100.00;97923.59;5073838;27;45799;-86
2023/01/16 12:24:29;;;;;;;;;0.00;0.00;;;;;9.27;100.00;97904.72;5094194;27;44755;-83
2023/01/16 12:27:13;;;;;;;;;0.00;0.00;;;;;9.23;100.00;97933.69;5068879;27;46043;-84
2023/01/16 12:30:06;;;;;;;;;0.67;0.00;;;;;9.21;100.00;97944.06;5087047;27;45797;-83
2023/01/16 12:33:09;;;;;;;;;0.00;0.00;;;;;9.16;100.00;97956.66;5101782;27;45285;-85
2023/01/16 12:36:06;;;;;;;;;0.00;0.00;;;;;9.24;100.00;97966.25;5095302;27;45514;-84
2023/01/16 12:38:34;;;;;;;;;0.00;0.00;;;;;9.20;100.00;97970.59;5098782;27;45865;-83
2023/01/16 12:43:17;;;;;;;;;1.00;0.00;;;;;9.22;100.00;97976.63;5100205;27;46672;-83
2023/01/16 12:44:28;;;;;;;;;0.00;0.00;;;;;9.14;100.00;97993.53;5103180;27;45543;-83
2023/01/16 12:46:53;;;;;;;;;0.67;0.67;;;;;9.07;100.00;97988.34;5084005;27;45821;-82
2023/01/16 12:49:34;;;;;;;;;2.00;1.00;;;;;9.00;100.00;98001.44;5091116;27;45346;-84
2023/01/16 12:52:05;;;;;;;;;0.33;0.33;;;;;8.94;100.00;97997.03;5090336;27;45473;-80
2023/01/16 12:54:43;;;;;;;;;1.67;0.00;;;;;8.93;100.00;98014.50;5089075;27;45765;-81
2023/01/16 12:57:42;;;;;;;;;2.00;0.00;;;;;8.88;100.00;98023.50;5090695;27;45619;-82